createdAt,value
2022-08-12T00:00:37.050Z,19.70
2022-08-12T00:03:22.878Z,19.70
2022-08-12T00:06:09.614Z,19.60
2022-08-12T00:08:57.615Z,19.50
2022-08-12T00:11:45.942Z,19.50
2022-08-12T00:14:32.488Z,19.40
2022-08-12T00:17:22.780Z,19.40
2022-08-12T00:20:09.500Z,19.30
2022-08-12T00:22:59.254Z,19.30
2022-08-12T00:26:20.710Z,19.30
2022-08-12T00:29:01.727Z,19.20
2022-08-12T00:31:47.941Z,19.10
2022-08-12T00:34:36.270Z,19.30
2022-08-12T00:37:23.652Z,19.20
2022-08-12T00:40:10.763Z,19.20
2022-08-12T00:42:41.454Z,19.10
2022-08-12T00:45:11.626Z,19.10
2022-08-12T00:47:40.896Z,19.10
2022-08-12T00:50:18.010Z,19.00
2022-08-12T00:52:47.415Z,19.00
2022-08-12T00:55:17.912Z,18.90
2022-08-12T00:57:48.954Z,18.90
2022-08-12T01:00:21.479Z,18.90
2022-08-12T01:02:52.644Z,18.80
2022-08-12T01:05:41.547Z,18.80
2022-08-12T01:08:28.126Z,18.70
2022-08-12T01:11:15.544Z,18.80
2022-08-12T01:13:48.202Z,18.70
2022-08-12T01:16:19.273Z,18.70
2022-08-12T01:18:47.842Z,18.70
2022-08-12T01:21:35.189Z,18.60
2022-08-12T01:24:28.149Z,18.60
2022-08-12T01:27:03.513Z,18.50
2022-08-12T01:29:42.685Z,18.50
2022-08-12T01:32:14.308Z,18.60
2022-08-12T01:34:51.008Z,18.40
2022-08-12T01:37:23.301Z,18.40
2022-08-12T01:40:34.534Z,18.40
2022-08-12T01:42:47.712Z,18.40
2022-08-12T01:45:19.380Z,18.30
2022-08-12T01:47:58.532Z,18.40
2022-08-12T01:50:48.202Z,18.30
2022-08-12T01:53:20.667Z,18.20
2022-08-12T01:55:50.717Z,18.10
2022-08-12T01:58:51.193Z,18.10
2022-08-12T02:01:24.767Z,18.10
2022-08-12T02:04:22.732Z,18.10
2022-08-12T02:07:19.967Z,18.00
2022-08-12T02:10:51.372Z,17.90
2022-08-12T02:13:43.812Z,17.90
2022-08-12T02:16:19.059Z,17.90
2022-08-12T02:18:57.129Z,17.80
2022-08-12T02:21:37.263Z,17.80
2022-08-12T02:24:07.563Z,17.80
2022-08-12T02:26:40.952Z,17.70
2022-08-12T02:29:10.145Z,17.70
2022-08-12T02:31:41.219Z,17.80
2022-08-12T02:34:12.577Z,17.70
2022-08-12T02:36:41.964Z,17.60
2022-08-12T02:39:14.369Z,17.60
2022-08-12T02:41:46.872Z,17.50
2022-08-12T02:44:18.713Z,17.60
2022-08-12T02:46:54.712Z,17.50
2022-08-12T02:49:27.127Z,17.40
2022-08-12T02:51:56.389Z,17.40
2022-08-12T02:54:26.438Z,17.30
2022-08-12T02:56:55.643Z,17.30
2022-08-12T02:59:27.516Z,17.30
2022-08-12T03:02:03.245Z,17.40
2022-08-12T03:04:39.062Z,17.20
2022-08-12T03:07:14.789Z,17.20
2022-08-12T03:10:04.281Z,17.20
2022-08-12T03:12:40.085Z,17.20
2022-08-12T03:15:19.088Z,17.10
2022-08-12T03:18:26.943Z,17.10
2022-08-12T03:20:45.536Z,17.10
2022-08-12T03:23:21.567Z,17.20
2022-08-12T03:26:02.074Z,17.20
2022-08-12T03:28:50.154Z,17.10
2022-08-12T03:31:20.482Z,17.10
2022-08-12T03:34:00.756Z,17.10
2022-08-12T03:36:35.250Z,17.00
2022-08-12T03:39:35.786Z,17.00
2022-08-12T03:42:19.813Z,17.00
2022-08-12T03:45:14.913Z,17.00
2022-08-12T03:48:06.101Z,17.00
2022-08-12T03:50:53.752Z,16.90
2022-08-12T03:53:45.667Z,16.90
2022-08-12T03:56:31.921Z,16.90
2022-08-12T03:59:19.141Z,16.80
2022-08-12T04:01:52.438Z,16.80
2022-08-12T04:04:23.538Z,16.80
2022-08-12T04:06:53.847Z,16.70
2022-08-12T04:09:23.524Z,16.70
2022-08-12T04:12:09.702Z,16.70
2022-08-12T04:14:40.399Z,16.70
2022-08-12T04:17:09.578Z,16.60
2022-08-12T04:19:38.875Z,16.60
2022-08-12T04:22:09.885Z,16.60
2022-08-12T04:24:40.882Z,16.60
2022-08-12T04:27:11.913Z,16.60
2022-08-12T04:30:31.372Z,16.50
2022-08-12T04:32:29.845Z,16.50
2022-08-12T04:34:59.055Z,16.60
2022-08-12T04:37:29.028Z,16.50
2022-08-12T04:40:28.144Z,16.40
2022-08-12T04:42:58.238Z,16.50
2022-08-12T04:45:26.755Z,16.40
2022-08-12T04:47:56.590Z,16.40
2022-08-12T04:50:34.912Z,16.40
2022-08-12T04:53:09.349Z,16.40
2022-08-12T04:55:38.756Z,16.40
2022-08-12T04:58:07.786Z,16.40
2022-08-12T05:00:37.863Z,16.40
2022-08-12T05:03:07.161Z,16.40
2022-08-12T05:05:37.831Z,16.30
2022-08-12T05:08:12.438Z,16.40
2022-08-12T05:10:41.021Z,16.50
2022-08-12T05:13:15.201Z,16.50
2022-08-12T05:16:02.398Z,16.60
2022-08-12T05:18:35.071Z,16.60
2022-08-12T05:21:09.020Z,16.70
2022-08-12T05:23:39.728Z,16.80
2022-08-12T05:26:08.588Z,16.80
2022-08-12T05:28:37.859Z,16.90
2022-08-12T05:31:06.765Z,16.90
2022-08-12T05:33:38.598Z,17.00
2022-08-12T05:36:08.957Z,17.00
2022-08-12T05:38:56.495Z,17.10
2022-08-12T05:41:25.912Z,17.10
2022-08-12T05:43:55.964Z,17.30
2022-08-12T05:46:25.808Z,17.20
2022-08-12T05:48:55.522Z,17.30
2022-08-12T05:51:40.782Z,17.30
2022-08-12T05:54:12.386Z,17.40
2022-08-12T05:56:41.527Z,17.50
2022-08-12T05:59:12.187Z,17.50
2022-08-12T06:02:08.925Z,17.60
2022-08-12T06:04:32.282Z,17.80
2022-08-12T06:07:01.776Z,17.90
2022-08-12T06:09:31.931Z,18.00
2022-08-12T06:12:06.084Z,18.10
2022-08-12T06:14:38.807Z,18.30
2022-08-12T06:17:09.492Z,18.40
2022-08-12T06:20:27.839Z,18.60
2022-08-12T06:22:27.647Z,18.70
2022-08-12T06:24:57.482Z,18.90
2022-08-12T06:27:26.003Z,19.10
2022-08-12T06:30:09.914Z,19.30
2022-08-12T06:32:51.663Z,19.40
2022-08-12T06:35:48.967Z,19.60
2022-08-12T06:38:17.976Z,19.80
2022-08-12T06:41:07.199Z,20.10
2022-08-12T06:44:05.671Z,20.10
2022-08-12T06:46:26.499Z,20.30
2022-08-12T06:48:59.089Z,20.40
2022-08-12T06:51:29.853Z,20.60
2022-08-12T06:53:58.948Z,20.70
2022-08-12T06:56:59.696Z,20.90
2022-08-12T06:59:21.253Z,21.00
2022-08-12T07:01:51.572Z,21.10
2022-08-12T07:04:38.419Z,21.30
2022-08-12T07:07:09.367Z,21.50
2022-08-12T07:10:05.774Z,21.60
2022-08-12T07:12:28.818Z,21.90
2022-08-12T07:14:58.410Z,22.00
2022-08-12T07:17:36.397Z,22.20
2022-08-12T07:20:06.724Z,22.30
2022-08-12T07:22:35.288Z,22.50
2022-08-12T07:25:21.969Z,22.60
2022-08-12T07:27:58.336Z,22.80
2022-08-12T07:30:26.925Z,23.10
2022-08-12T07:32:58.624Z,23.50
2022-08-12T07:35:30.832Z,23.80
2022-08-12T07:38:00.354Z,24.00
2022-08-12T07:40:30.690Z,24.20
2022-08-12T07:43:00.559Z,24.30
2022-08-12T07:45:29.153Z,24.50
2022-08-12T07:47:57.596Z,24.70
2022-08-12T07:50:26.541Z,25.00
2022-08-12T07:52:55.078Z,25.10
2022-08-12T07:55:23.553Z,25.40
2022-08-12T07:57:58.613Z,25.50
2022-08-12T08:00:30.388Z,25.60
2022-08-12T08:02:59.266Z,25.70
2022-08-12T08:05:31.419Z,25.80
2022-08-12T08:08:02.407Z,25.90
2022-08-12T08:10:31.778Z,26.10
2022-08-12T08:13:05.301Z,26.10
2022-08-12T08:18:27.501Z,26.30
2022-08-12T08:20:57.647Z,26.50
2022-08-12T08:23:56.429Z,26.60
2022-08-12T08:26:27.047Z,26.80
2022-08-12T08:28:55.769Z,26.90
2022-08-12T08:31:25.628Z,27.10
2022-08-12T08:34:09.687Z,27.20
2022-08-12T08:36:45.474Z,27.30
2022-08-12T08:39:16.935Z,27.60
2022-08-12T08:42:16.576Z,27.70
2022-08-12T08:44:49.767Z,27.80
2022-08-12T08:47:23.928Z,28.10
2022-08-12T08:49:52.522Z,28.20
2022-08-12T08:52:39.358Z,28.40
2022-08-12T08:55:09.816Z,28.50
2022-08-12T08:57:44.094Z,28.70
2022-08-12T09:00:17.609Z,28.80
2022-08-12T09:02:58.786Z,29.00
2022-08-12T09:05:43.164Z,29.30
2022-08-12T09:08:22.354Z,29.40
2022-08-12T09:14:12.623Z,29.70
2022-08-12T09:16:37.997Z,29.90
2022-08-12T09:22:02.179Z,30.20
2022-08-12T09:24:33.265Z,30.50
2022-08-12T09:27:01.701Z,30.60
2022-08-12T09:30:09.994Z,30.80
2022-08-12T09:32:31.478Z,30.90
2022-08-12T09:35:18.466Z,31.10
2022-08-12T09:37:55.077Z,31.30
2022-08-12T09:40:57.442Z,31.50
2022-08-12T09:43:34.558Z,31.70
2022-08-12T09:46:19.821Z,31.90
2022-08-12T09:48:56.550Z,32.10
2022-08-12T09:51:38.251Z,32.20
2022-08-12T09:54:33.975Z,32.30
2022-08-12T09:58:07.838Z,32.40
2022-08-12T10:00:16.973Z,32.50
2022-08-12T10:03:00.180Z,32.60
2022-08-12T10:06:19.968Z,32.60
2022-08-12T10:08:24.467Z,32.60
2022-08-12T10:11:18.680Z,32.70
2022-08-12T10:13:49.940Z,32.80
2022-08-12T10:16:22.491Z,32.80
2022-08-12T10:18:53.509Z,32.90
2022-08-12T10:21:24.233Z,32.90
2022-08-12T10:24:08.399Z,33.10
2022-08-12T10:26:56.099Z,33.20
2022-08-12T10:30:37.024Z,33.30
2022-08-12T10:32:44.284Z,33.40
2022-08-12T10:35:16.475Z,33.60
2022-08-12T10:38:33.654Z,33.70
2022-08-12T10:40:58.543Z,33.80
2022-08-12T10:43:55.559Z,33.90
2022-08-12T10:46:30.952Z,33.90
2022-08-12T10:49:06.432Z,34.00
2022-08-12T10:52:33.237Z,34.10
2022-08-12T10:54:43.761Z,34.20
2022-08-12T10:58:13.448Z,34.30
2022-08-12T11:00:34.304Z,34.30
2022-08-12T11:04:24.245Z,34.30
2022-08-12T11:07:03.760Z,34.40
2022-08-12T11:08:43.626Z,34.40
2022-08-12T11:11:17.945Z,34.50
2022-08-12T11:14:13.071Z,34.50
2022-08-12T11:17:34.462Z,34.50
2022-08-12T11:19:46.451Z,34.60
2022-08-12T11:22:14.903Z,34.70
2022-08-12T11:24:51.361Z,34.70
2022-08-12T11:27:20.365Z,34.80
2022-08-12T11:30:01.536Z,34.80
2022-08-12T11:32:39.102Z,34.80
2022-08-12T11:35:09.356Z,35.00
2022-08-12T11:37:58.875Z,35.10
2022-08-12T11:40:29.296Z,35.30
2022-08-12T11:43:18.633Z,35.40
2022-08-12T11:45:53.131Z,35.40
2022-08-12T11:48:26.816Z,35.40
2022-08-12T11:50:56.835Z,35.50
2022-08-12T11:53:56.450Z,35.50
2022-08-12T11:56:13.707Z,35.70
2022-08-12T12:02:02.847Z,35.90
2022-08-12T12:04:29.080Z,36.20
2022-08-12T12:07:07.523Z,36.30
2022-08-12T12:09:52.364Z,36.50
2022-08-12T12:12:22.946Z,36.50
2022-08-12T12:14:54.252Z,36.70
2022-08-12T12:17:25.665Z,36.90
2022-08-12T12:19:55.216Z,37.00
2022-08-12T12:22:27.226Z,37.20
2022-08-12T12:25:12.651Z,37.30
2022-08-12T12:28:04.960Z,37.40
2022-08-12T12:30:35.667Z,37.60
2022-08-12T12:33:05.972Z,37.70
2022-08-12T12:36:18.355Z,37.80
2022-08-12T12:38:25.122Z,37.90
2022-08-12T12:40:54.827Z,38.10
2022-08-12T12:43:29.034Z,38.20
2022-08-12T12:46:11.724Z,38.30
2022-08-12T12:48:44.624Z,38.30
2022-08-12T12:51:48.202Z,38.40
2022-08-12T12:54:10.084Z,38.40
2022-08-12T12:56:42.331Z,38.50
2022-08-12T12:59:55.512Z,38.60
2022-08-12T13:02:01.997Z,38.80
2022-08-12T13:04:38.274Z,38.90
2022-08-12T13:07:07.907Z,39.00
2022-08-12T13:09:36.990Z,39.10
2022-08-12T13:12:08.871Z,39.20
2022-08-12T13:14:39.991Z,39.30
2022-08-12T13:17:11.320Z,39.40
2022-08-12T13:19:46.862Z,39.40
2022-08-12T13:22:20.152Z,39.50
2022-08-12T13:24:55.057Z,39.50
2022-08-12T13:27:35.391Z,39.50
2022-08-12T13:30:11.587Z,39.50
2022-08-12T13:32:42.308Z,39.40
2022-08-12T13:35:19.673Z,39.40
2022-08-12T13:37:54.779Z,39.30
2022-08-12T13:40:25.309Z,39.30
2022-08-12T13:42:58.072Z,39.30
2022-08-12T13:45:29.164Z,39.30
2022-08-12T13:48:00.115Z,39.30
2022-08-12T13:50:33.044Z,39.20
2022-08-12T13:53:06.355Z,39.10
2022-08-12T13:55:59.513Z,39.00
2022-08-12T13:58:34.749Z,39.00
2022-08-12T14:01:05.964Z,39.00
2022-08-12T14:03:51.020Z,39.00
2022-08-12T14:06:25.898Z,39.00
2022-08-12T14:08:59.542Z,38.90
2022-08-12T14:11:28.216Z,38.80
2022-08-12T14:14:05.928Z,38.70
2022-08-12T14:16:48.879Z,38.80
2022-08-12T14:19:24.519Z,38.80
2022-08-12T14:22:01.017Z,38.80
2022-08-12T14:24:35.541Z,39.00
2022-08-12T14:27:08.707Z,39.10
2022-08-12T14:30:04.483Z,39.30
2022-08-12T14:32:34.392Z,39.40
2022-08-12T14:35:05.133Z,39.40
2022-08-12T14:37:58.107Z,39.30
2022-08-12T14:40:27.644Z,39.20
2022-08-12T14:42:57.335Z,39.10
2022-08-12T14:45:44.857Z,39.00
2022-08-12T14:48:16.783Z,38.80
2022-08-12T14:51:02.980Z,38.60
2022-08-12T14:55:36.188Z,38.30
2022-08-12T14:59:56.991Z,37.70
2022-08-12T15:02:21.476Z,37.50
2022-08-12T15:04:56.140Z,37.20
2022-08-12T15:07:33.490Z,37.10
2022-08-12T15:10:14.382Z,36.90
2022-08-12T15:12:42.943Z,36.50
2022-08-12T15:15:12.199Z,36.30
2022-08-12T15:17:40.684Z,36.10
2022-08-12T15:20:31.062Z,35.90
2022-08-12T15:22:58.708Z,35.80
2022-08-12T15:25:29.284Z,35.80
2022-08-12T15:28:10.883Z,35.70
2022-08-12T15:30:52.152Z,35.60
2022-08-12T15:33:24.105Z,35.60
2022-08-12T15:35:54.038Z,35.40
2022-08-12T15:38:24.966Z,35.20
2022-08-12T15:40:59.159Z,35.00
2022-08-12T15:43:51.976Z,34.80
2022-08-12T15:46:18.603Z,34.60
2022-08-12T15:48:49.827Z,34.50
2022-08-12T15:51:59.385Z,34.40
2022-08-12T15:54:35.144Z,34.30
2022-08-12T15:57:10.935Z,34.30
2022-08-12T16:00:00.045Z,34.20
2022-08-12T16:02:47.357Z,34.10
2022-08-12T16:06:13.345Z,34.00
2022-08-12T16:08:17.124Z,33.90
2022-08-12T16:10:47.122Z,33.90
2022-08-12T16:13:32.300Z,33.90
2022-08-12T16:16:03.881Z,34.00
2022-08-12T16:18:35.599Z,34.10
2022-08-12T16:21:09.091Z,34.30
2022-08-12T16:23:55.366Z,34.40
2022-08-12T16:26:27.347Z,34.50
2022-08-12T16:29:15.146Z,34.50
2022-08-12T16:31:44.812Z,34.50
2022-08-12T16:34:26.025Z,34.40
2022-08-12T16:37:07.131Z,34.40
2022-08-12T16:40:01.020Z,34.30
2022-08-12T16:42:28.861Z,34.20
2022-08-12T16:45:02.015Z,34.10
2022-08-12T16:47:58.356Z,34.10
2022-08-12T16:50:21.717Z,34.10
2022-08-12T16:53:02.457Z,34.10
2022-08-12T16:55:42.135Z,34.00
2022-08-12T16:58:28.258Z,33.90
2022-08-12T17:01:01.919Z,33.80
2022-08-12T17:03:32.485Z,33.60
2022-08-12T17:06:06.336Z,33.50
2022-08-12T17:08:34.953Z,33.40
2022-08-12T17:11:04.517Z,33.30
2022-08-12T17:13:37.047Z,33.10
2022-08-12T17:16:24.110Z,33.00
2022-08-12T17:18:57.505Z,32.90
2022-08-12T17:21:41.699Z,32.80
2022-08-12T17:24:22.324Z,32.70
2022-08-12T17:26:53.745Z,32.60
2022-08-12T17:29:32.032Z,32.40
2022-08-12T17:32:14.266Z,32.30
2022-08-12T17:35:00.851Z,32.20
2022-08-12T17:37:29.405Z,32.10
2022-08-12T17:40:13.528Z,32.00
2022-08-12T17:42:48.121Z,31.80
2022-08-12T17:45:19.769Z,31.70
2022-08-12T17:48:00.984Z,31.60
2022-08-12T17:50:35.824Z,31.50
2022-08-12T17:53:05.316Z,31.40
2022-08-12T17:55:44.286Z,31.30
2022-08-12T17:58:21.435Z,31.20
2022-08-12T18:00:51.612Z,31.10
2022-08-12T18:04:05.355Z,31.10
2022-08-12T18:06:14.736Z,30.90
2022-08-12T18:08:54.382Z,30.80
2022-08-12T18:12:04.382Z,30.70
2022-08-12T18:14:31.199Z,30.60
2022-08-12T18:17:01.610Z,30.40
2022-08-12T18:19:34.200Z,30.30
2022-08-12T18:22:40.850Z,30.20
2022-08-12T18:26:12.333Z,30.00
2022-08-12T18:28:11.681Z,29.90
2022-08-12T18:30:52.299Z,29.80
2022-08-12T18:33:24.962Z,29.60
2022-08-12T18:35:56.795Z,29.50
2022-08-12T18:38:26.839Z,29.40
2022-08-12T18:41:22.013Z,29.20
2022-08-12T18:44:00.763Z,29.20
2022-08-12T18:47:01.454Z,29.00
2022-08-12T18:49:38.784Z,28.90
2022-08-12T18:52:11.467Z,28.80
2022-08-12T18:54:49.052Z,28.70
2022-08-12T18:58:06.977Z,28.50
2022-08-12T19:00:18.869Z,28.30
2022-08-12T19:02:52.591Z,28.10
2022-08-12T19:05:52.909Z,28.00
2022-08-12T19:08:16.218Z,27.90
2022-08-12T19:10:50.195Z,27.60
2022-08-12T19:13:39.152Z,27.40
2022-08-12T19:16:10.785Z,27.30
2022-08-12T19:18:45.016Z,27.10
2022-08-12T19:21:16.721Z,26.90
2022-08-12T19:24:07.415Z,26.70
2022-08-12T19:26:35.778Z,26.60
2022-08-12T19:29:05.137Z,26.40
2022-08-12T19:31:57.406Z,26.30
2022-08-12T19:37:27.073Z,26.00
2022-08-12T19:40:08.669Z,25.80
2022-08-12T19:43:00.624Z,25.70
2022-08-12T19:45:41.925Z,25.70
2022-08-12T19:48:16.869Z,25.40
2022-08-12T19:50:50.272Z,25.30
2022-08-12T19:53:23.454Z,25.20
2022-08-12T19:55:56.103Z,25.10
2022-08-12T19:58:27.054Z,24.90
2022-08-12T20:00:56.701Z,24.80
2022-08-12T20:03:38.794Z,24.70
2022-08-12T20:06:13.634Z,24.60
2022-08-12T20:08:48.673Z,24.50
2022-08-12T20:12:11.624Z,24.30
2022-08-12T20:14:18.034Z,24.20
2022-08-12T20:16:52.782Z,24.10
2022-08-12T20:19:52.187Z,24.00
2022-08-12T20:22:33.313Z,23.70
2022-08-12T20:25:06.780Z,23.70
2022-08-12T20:28:04.328Z,23.60
2022-08-12T20:30:52.492Z,23.60
2022-08-12T20:33:23.018Z,23.50
2022-08-12T20:36:06.865Z,23.40
2022-08-12T20:38:51.082Z,23.30
2022-08-12T20:41:22.187Z,23.20
2022-08-12T20:43:57.725Z,23.10
2022-08-12T20:46:31.664Z,23.10
2022-08-12T20:49:01.186Z,22.90
2022-08-12T20:51:55.531Z,22.90
2022-08-12T20:54:32.882Z,22.80
2022-08-12T20:57:08.689Z,22.70
2022-08-12T20:59:48.097Z,22.70
2022-08-12T21:02:24.153Z,22.60
2022-08-12T21:05:19.599Z,22.40
2022-08-12T21:07:52.332Z,22.30
2022-08-12T21:10:21.658Z,22.30
2022-08-12T21:12:55.713Z,22.10
2022-08-12T21:15:53.455Z,22.10
2022-08-12T21:18:28.757Z,22.00
2022-08-12T21:20:59.017Z,22.00
2022-08-12T21:23:30.906Z,21.90
2022-08-12T21:26:12.405Z,21.80
2022-08-12T21:28:58.046Z,21.70
2022-08-12T21:32:47.060Z,21.70
2022-08-12T21:34:29.159Z,21.60
2022-08-12T21:37:13.091Z,21.50
2022-08-12T21:39:52.202Z,21.40
2022-08-12T21:42:27.842Z,21.40
2022-08-12T21:45:47.773Z,21.30
2022-08-12T21:47:53.067Z,21.30
2022-08-12T21:50:22.115Z,21.20
2022-08-12T21:52:57.825Z,21.20
2022-08-12T21:55:27.308Z,21.20
2022-08-12T21:58:02.513Z,21.10
2022-08-12T22:00:35.156Z,21.00
2022-08-12T22:04:03.717Z,21.00
2022-08-12T22:06:31.752Z,20.90
2022-08-12T22:09:16.454Z,20.80
2022-08-12T22:11:49.354Z,20.80
2022-08-12T22:14:25.292Z,20.70
2022-08-12T22:16:56.348Z,20.60
2022-08-12T22:19:26.834Z,20.50
2022-08-12T22:21:58.420Z,20.60
2022-08-12T22:24:29.947Z,20.40
2022-08-12T22:27:07.931Z,20.50
2022-08-12T22:30:07.158Z,20.40
2022-08-12T22:32:38.635Z,20.50
2022-08-12T22:35:29.161Z,20.30
2022-08-12T22:38:10.772Z,20.30
2022-08-12T22:40:40.460Z,20.20
2022-08-12T22:43:32.137Z,20.20
2022-08-12T22:46:19.143Z,20.20
2022-08-12T22:48:50.597Z,20.10
2022-08-12T22:51:24.084Z,20.10
2022-08-12T22:53:54.870Z,20.00
2022-08-12T22:56:30.982Z,20.00
2022-08-12T22:59:02.660Z,20.00
2022-08-12T23:02:01.381Z,20.00
2022-08-12T23:04:27.716Z,19.90
2022-08-12T23:07:05.370Z,19.90
2022-08-12T23:09:48.326Z,19.90
2022-08-12T23:12:41.141Z,19.90
2022-08-12T23:15:15.473Z,19.70
2022-08-12T23:17:46.020Z,19.70
2022-08-12T23:20:18.265Z,19.60
2022-08-12T23:23:03.074Z,19.50
2022-08-12T23:25:54.658Z,19.50
2022-08-12T23:28:42.456Z,19.40
2022-08-12T23:31:11.128Z,19.30
2022-08-12T23:34:00.755Z,19.20
2022-08-12T23:36:31.608Z,19.30
2022-08-12T23:40:15.027Z,19.10
2022-08-12T23:42:16.560Z,19.00
2022-08-12T23:44:48.451Z,19.00
2022-08-12T23:47:17.630Z,18.90
2022-08-12T23:49:57.329Z,18.90
2022-08-12T23:52:33.888Z,19.00
2022-08-12T23:55:23.142Z,18.80
2022-08-12T23:58:18.275Z,18.80
